createdAt,value
2016-10-15T00:00:21.737Z,1002.04
2016-10-15T00:01:02.442Z,1002.05
2016-10-15T00:01:43.059Z,1002.06
2016-10-15T00:02:23.744Z,1002.03
2016-10-15T00:03:04.498Z,1002.03
2016-10-15T00:03:45.135Z,1002.07
2016-10-15T00:04:25.843Z,1002.06
2016-10-15T00:05:06.552Z,1002.07
2016-10-15T00:05:47.242Z,1002.03
2016-10-15T00:06:27.937Z,1002.04
2016-10-15T00:07:08.624Z,1002.05
2016-10-15T00:07:49.310Z,1002.04
2016-10-15T00:08:30.003Z,1002.04
2016-10-15T00:09:10.700Z,1002.06
2016-10-15T00:09:51.371Z,1002.08
2016-10-15T00:10:32.048Z,1002.07
2016-10-15T00:11:12.700Z,1002.08
2016-10-15T00:11:53.357Z,1002.05
2016-10-15T00:12:34.057Z,1002.07
2016-10-15T00:13:14.714Z,1002.05
2016-10-15T00:13:55.373Z,1002.1
2016-10-15T00:14:36.059Z,1002.07
2016-10-15T00:15:17.655Z,1002.07
2016-10-15T00:15:59.013Z,1002.07
2016-10-15T00:16:39.647Z,1002.09
2016-10-15T00:17:20.349Z,1002.08
2016-10-15T00:18:01.045Z,1002.1
2016-10-15T00:18:41.716Z,1002.12
2016-10-15T00:19:22.413Z,1002.12
2016-10-15T00:20:03.101Z,1002.14
2016-10-15T00:20:43.746Z,1002.13
2016-10-15T00:21:24.480Z,1002.15
2016-10-15T00:22:05.193Z,1002.18
2016-10-15T00:22:45.878Z,1002.16
2016-10-15T00:23:26.591Z,1002.17
2016-10-15T00:24:07.277Z,1002.17
2016-10-15T00:24:47.947Z,1002.18
2016-10-15T00:25:28.628Z,1002.21
2016-10-15T00:26:09.317Z,1002.2
2016-10-15T00:26:49.988Z,1002.18
2016-10-15T00:27:30.717Z,1002.21
2016-10-15T00:28:11.463Z,1002.2
2016-10-15T00:28:52.156Z,1002.21
2016-10-15T00:29:32.877Z,1002.23
2016-10-15T00:30:13.577Z,1002.21
2016-10-15T00:30:54.287Z,1002.22
2016-10-15T00:31:34.983Z,1002.25
2016-10-15T00:32:15.651Z,1002.26
2016-10-15T00:32:56.373Z,1002.26
2016-10-15T00:33:37.091Z,1002.25
2016-10-15T00:34:17.814Z,1002.24
2016-10-15T00:34:58.466Z,1002.25
2016-10-15T00:35:39.163Z,1002.27
2016-10-15T00:36:19.831Z,1002.29
2016-10-15T00:37:00.561Z,1002.28
2016-10-15T00:37:41.237Z,1002.29
2016-10-15T00:38:21.936Z,1002.26
2016-10-15T00:39:02.639Z,1002.29
2016-10-15T00:39:43.307Z,1002.3
2016-10-15T00:40:23.988Z,1002.28
2016-10-15T00:41:04.677Z,1002.34
2016-10-15T00:41:45.334Z,1002.3
2016-10-15T00:42:26.002Z,1002.29
2016-10-15T00:43:06.655Z,1002.32
2016-10-15T00:43:47.340Z,1002.3
2016-10-15T00:44:28.065Z,1002.32
2016-10-15T00:45:08.775Z,1002.27
2016-10-15T00:45:49.464Z,1002.27
2016-10-15T00:46:30.118Z,1002.28
2016-10-15T00:47:10.799Z,1002.31
2016-10-15T00:47:51.462Z,1002.29
2016-10-15T00:48:32.102Z,1002.28
2016-10-15T00:49:12.799Z,1002.3
2016-10-15T00:49:53.517Z,1002.28
2016-10-15T00:50:34.170Z,1002.31
2016-10-15T00:51:14.842Z,1002.3
2016-10-15T00:51:55.545Z,1002.31
2016-10-15T00:52:36.266Z,1002.32
2016-10-15T00:53:16.979Z,1002.37
2016-10-15T00:53:57.647Z,1002.36
2016-10-15T00:54:38.339Z,1002.38
2016-10-15T00:55:18.963Z,1002.37
2016-10-15T00:55:59.636Z,1002.34
2016-10-15T00:56:40.351Z,1002.34
2016-10-15T00:57:20.996Z,1002.34
2016-10-15T00:58:01.653Z,1002.38
2016-10-15T00:58:42.333Z,1002.32
2016-10-15T00:59:23.023Z,1002.39
2016-10-15T01:00:03.658Z,1002.33
2016-10-15T01:00:44.411Z,1002.41
2016-10-15T01:01:25.067Z,1002.37
2016-10-15T01:02:05.801Z,1002.37
2016-10-15T01:02:46.469Z,1002.37
2016-10-15T01:03:27.163Z,1002.37
2016-10-15T01:04:07.860Z,1002.36
2016-10-15T01:04:48.566Z,1002.35
2016-10-15T01:05:29.219Z,1002.35
2016-10-15T01:06:09.864Z,1002.33
2016-10-15T01:06:50.599Z,1002.34
2016-10-15T01:07:31.298Z,1002.35
2016-10-15T01:08:11.939Z,1002.35
2016-10-15T01:08:52.624Z,1002.35
2016-10-15T01:09:33.281Z,1002.37
2016-10-15T01:10:13.955Z,1002.38
2016-10-15T01:10:54.681Z,1002.35
2016-10-15T01:11:35.345Z,1002.34
2016-10-15T01:12:15.983Z,1002.34
2016-10-15T01:12:56.673Z,1002.39
2016-10-15T01:13:37.390Z,1002.35
2016-10-15T01:14:18.035Z,1002.36
2016-10-15T01:14:58.739Z,1002.37
2016-10-15T01:15:39.423Z,1002.36
2016-10-15T01:16:20.134Z,1002.39
2016-10-15T01:17:00.815Z,1002.36
2016-10-15T01:17:41.559Z,1002.39
2016-10-15T01:18:22.240Z,1002.38
2016-10-15T01:19:02.915Z,1002.4
2016-10-15T01:19:43.625Z,1002.43
2016-10-15T01:20:24.266Z,1002.38
2016-10-15T01:21:04.966Z,1002.39
2016-10-15T01:21:45.660Z,1002.4
2016-10-15T01:22:26.401Z,1002.42
2016-10-15T01:23:07.058Z,1002.44
2016-10-15T01:23:47.749Z,1002.44
2016-10-15T01:24:28.452Z,1002.4
2016-10-15T01:25:09.118Z,1002.46
2016-10-15T01:25:49.802Z,1002.42
2016-10-15T01:26:30.504Z,1002.42
2016-10-15T01:27:11.197Z,1002.43
2016-10-15T01:27:51.880Z,1002.42
2016-10-15T01:28:32.581Z,1002.41
2016-10-15T01:29:13.267Z,1002.43
2016-10-15T01:29:54.010Z,1002.42
2016-10-15T01:30:34.686Z,1002.45
2016-10-15T01:31:15.396Z,1002.43
2016-10-15T01:31:56.084Z,1002.42
2016-10-15T01:32:36.782Z,1002.46
2016-10-15T01:33:17.434Z,1002.42
2016-10-15T01:33:58.131Z,1002.43
2016-10-15T01:34:38.851Z,1002.46
2016-10-15T01:35:19.549Z,1002.44
2016-10-15T01:36:00.254Z,1002.46
2016-10-15T01:36:40.975Z,1002.49
2016-10-15T01:37:21.652Z,1002.47
2016-10-15T01:38:02.328Z,1002.46
2016-10-15T01:38:42.989Z,1002.51
2016-10-15T01:39:23.678Z,1002.48
2016-10-15T01:40:04.359Z,1002.47
2016-10-15T01:40:45.034Z,1002.48
2016-10-15T01:41:25.751Z,1002.48
2016-10-15T01:42:06.408Z,1002.5
2016-10-15T01:42:47.112Z,1002.49
2016-10-15T01:43:27.767Z,1002.51
2016-10-15T01:44:08.465Z,1002.5
2016-10-15T01:44:49.124Z,1002.47
2016-10-15T01:45:29.818Z,1002.5
2016-10-15T01:46:10.521Z,1002.46
2016-10-15T01:46:51.212Z,1002.53
2016-10-15T01:47:31.898Z,1002.47
2016-10-15T01:48:12.634Z,1002.52
2016-10-15T01:48:53.318Z,1002.45
2016-10-15T01:49:33.938Z,1002.48
2016-10-15T01:50:14.628Z,1002.47
2016-10-15T01:50:55.338Z,1002.44
2016-10-15T01:51:36.047Z,1002.46
2016-10-15T01:52:16.747Z,1002.46
2016-10-15T01:52:57.417Z,1002.49
2016-10-15T01:53:38.108Z,1002.52
2016-10-15T01:54:18.784Z,1002.47
2016-10-15T01:54:59.481Z,1002.5
2016-10-15T01:55:40.158Z,1002.44
2016-10-15T01:56:20.873Z,1002.48
2016-10-15T01:57:01.545Z,1002.51
2016-10-15T01:57:42.235Z,1002.51
2016-10-15T01:58:22.881Z,1002.51
2016-10-15T01:59:03.539Z,1002.51
2016-10-15T01:59:44.248Z,1002.49
2016-10-15T02:00:25.916Z,1002.48
2016-10-15T02:01:06.607Z,1002.51
2016-10-15T02:01:47.318Z,1002.53
2016-10-15T02:02:27.996Z,1002.54
2016-10-15T02:03:08.658Z,1002.52
2016-10-15T02:03:49.400Z,1002.55
2016-10-15T02:04:30.086Z,1002.57
2016-10-15T02:05:10.736Z,1002.57
2016-10-15T02:05:51.411Z,1002.54
2016-10-15T02:06:32.067Z,1002.62
2016-10-15T02:07:12.811Z,1002.6
2016-10-15T02:07:53.495Z,1002.6
2016-10-15T02:08:34.179Z,1002.6
2016-10-15T02:09:14.903Z,1002.61
2016-10-15T02:09:55.561Z,1002.65
2016-10-15T02:10:36.275Z,1002.67
2016-10-15T02:11:17.044Z,1002.68
2016-10-15T02:11:57.730Z,1002.68
2016-10-15T02:12:38.431Z,1002.68
2016-10-15T02:13:19.147Z,1002.69
2016-10-15T02:13:59.820Z,1002.71
2016-10-15T02:14:40.499Z,1002.69
2016-10-15T02:15:21.166Z,1002.67
2016-10-15T02:16:01.864Z,1002.67
2016-10-15T02:16:42.535Z,1002.69
2016-10-15T02:17:23.169Z,1002.68
2016-10-15T02:18:03.895Z,1002.7
2016-10-15T02:18:44.579Z,1002.71
2016-10-15T02:19:25.318Z,1002.69
2016-10-15T02:20:05.937Z,1002.71
2016-10-15T02:20:46.561Z,1002.69
2016-10-15T02:21:27.206Z,1002.68
2016-10-15T02:22:07.898Z,1002.72
2016-10-15T02:22:48.599Z,1002.73
2016-10-15T02:23:29.219Z,1002.73
2016-10-15T02:24:09.919Z,1002.72
2016-10-15T02:24:50.619Z,1002.73
2016-10-15T02:25:31.291Z,1002.71
2016-10-15T02:26:11.971Z,1002.74
2016-10-15T02:26:52.650Z,1002.7
2016-10-15T02:27:33.338Z,1002.75
2016-10-15T02:28:14.030Z,1002.78
2016-10-15T02:28:54.739Z,1002.74
2016-10-15T02:29:35.425Z,1002.77
2016-10-15T02:30:16.095Z,1002.75
2016-10-15T02:30:56.760Z,1002.73
2016-10-15T02:31:37.471Z,1002.72
2016-10-15T02:32:18.182Z,1002.74
2016-10-15T02:32:58.854Z,1002.77
2016-10-15T02:33:39.568Z,1002.76
2016-10-15T02:34:20.234Z,1002.77
2016-10-15T02:35:00.941Z,1002.77
2016-10-15T02:35:41.648Z,1002.78
2016-10-15T02:36:22.345Z,1002.78
2016-10-15T02:37:03.030Z,1002.8
2016-10-15T02:37:43.715Z,1002.82
2016-10-15T02:38:24.381Z,1002.81
2016-10-15T02:39:05.079Z,1002.82
2016-10-15T02:39:45.767Z,1002.81
2016-10-15T02:40:26.440Z,1002.89
2016-10-15T02:41:07.135Z,1002.88
2016-10-15T02:41:47.781Z,1002.86
2016-10-15T02:42:28.463Z,1002.87
2016-10-15T02:43:09.179Z,1002.86
2016-10-15T02:43:49.823Z,1002.92
2016-10-15T02:44:30.507Z,1002.92
2016-10-15T02:45:11.141Z,1002.93
2016-10-15T02:45:51.863Z,1002.94
2016-10-15T02:46:32.569Z,1002.95
2016-10-15T02:47:13.244Z,1002.93
2016-10-15T02:47:53.933Z,1002.94
2016-10-15T02:48:34.601Z,1002.97
2016-10-15T02:49:15.282Z,1002.96
2016-10-15T02:49:55.933Z,1002.96
2016-10-15T02:50:36.623Z,1003
2016-10-15T02:51:17.336Z,1002.93
2016-10-15T02:51:58.020Z,1002.98
2016-10-15T02:52:38.717Z,1002.98
2016-10-15T02:53:19.394Z,1002.97
2016-10-15T02:54:00.080Z,1002.99
2016-10-15T02:54:40.759Z,1002.98
2016-10-15T02:55:21.491Z,1002.98
2016-10-15T02:56:02.200Z,1003
2016-10-15T02:56:42.861Z,1003
2016-10-15T02:57:23.521Z,1002.98
2016-10-15T02:58:04.224Z,1002.97
2016-10-15T02:58:44.902Z,1003.01
2016-10-15T02:59:25.571Z,1002.99
2016-10-15T03:00:06.283Z,1002.97
2016-10-15T03:00:47.006Z,1003
2016-10-15T03:01:27.730Z,1002.96
2016-10-15T03:02:08.444Z,1002.95
2016-10-15T03:02:49.157Z,1003.01
2016-10-15T03:03:29.847Z,1003.01
2016-10-15T03:04:10.475Z,1003.01
2016-10-15T03:04:51.164Z,1003
2016-10-15T03:05:31.825Z,1003.03
2016-10-15T03:06:12.510Z,1003.06
2016-10-15T03:06:53.171Z,1003.04
2016-10-15T03:07:33.872Z,1003.01
2016-10-15T03:08:14.549Z,1003.05
2016-10-15T03:08:55.206Z,1003.03
2016-10-15T03:09:35.929Z,1003.04
2016-10-15T03:10:16.624Z,1003.07
2016-10-15T03:10:57.322Z,1003.04
2016-10-15T03:11:37.975Z,1003.02
2016-10-15T03:12:18.696Z,1003.05
2016-10-15T03:12:59.345Z,1003.03
2016-10-15T03:13:40.052Z,1003.03
2016-10-15T03:14:20.733Z,1003.07
2016-10-15T03:15:01.406Z,1003.05
2016-10-15T03:15:42.099Z,1003.06
2016-10-15T03:16:22.781Z,1003.03
2016-10-15T03:17:03.434Z,1003.04
2016-10-15T03:17:44.101Z,1003.05
2016-10-15T03:18:24.786Z,1003.07
2016-10-15T03:19:05.479Z,1003.06
2016-10-15T03:19:46.172Z,1003.06
2016-10-15T03:20:26.910Z,1003.11
2016-10-15T03:21:07.601Z,1003.07
2016-10-15T03:21:48.296Z,1003.14
2016-10-15T03:22:28.944Z,1003.11
2016-10-15T03:23:09.654Z,1003.12
2016-10-15T03:23:50.325Z,1003.13
2016-10-15T03:24:31.018Z,1003.12
2016-10-15T03:25:11.702Z,1003.1
2016-10-15T03:25:52.361Z,1003.11
2016-10-15T03:26:32.991Z,1003.13
2016-10-15T03:27:13.721Z,1003.11
2016-10-15T03:27:54.392Z,1003.14
2016-10-15T03:28:35.063Z,1003.16
2016-10-15T03:29:15.796Z,1003.19
2016-10-15T03:29:56.451Z,1003.17
2016-10-15T03:30:37.173Z,1003.2
2016-10-15T03:31:17.869Z,1003.19
2016-10-15T03:31:58.536Z,1003.17
2016-10-15T03:32:39.239Z,1003.22
2016-10-15T03:33:19.933Z,1003.2
2016-10-15T03:34:00.646Z,1003.21
2016-10-15T03:34:41.363Z,1003.21
2016-10-15T03:35:22.057Z,1003.21
2016-10-15T03:36:02.748Z,1003.23
2016-10-15T03:36:43.390Z,1003.24
2016-10-15T03:37:24.067Z,1003.26
2016-10-15T03:38:04.748Z,1003.27
2016-10-15T03:38:45.395Z,1003.28
2016-10-15T03:39:26.084Z,1003.29
2016-10-15T03:40:06.766Z,1003.28
2016-10-15T03:40:47.428Z,1003.32
2016-10-15T03:41:28.145Z,1003.37
2016-10-15T03:42:08.864Z,1003.35
2016-10-15T03:42:49.528Z,1003.34
2016-10-15T03:43:30.230Z,1003.39
2016-10-15T03:44:10.893Z,1003.38
2016-10-15T03:44:51.596Z,1003.39
2016-10-15T03:45:32.262Z,1003.38
2016-10-15T03:46:12.943Z,1003.39
2016-10-15T03:46:53.612Z,1003.37
2016-10-15T03:47:34.288Z,1003.41
2016-10-15T03:48:15.001Z,1003.39
2016-10-15T03:48:55.706Z,1003.38
2016-10-15T03:49:36.335Z,1003.39
2016-10-15T03:50:17.008Z,1003.4
2016-10-15T03:50:57.725Z,1003.38
2016-10-15T03:51:38.438Z,1003.4
2016-10-15T03:52:19.124Z,1003.44
2016-10-15T03:52:59.776Z,1003.39
2016-10-15T03:53:40.475Z,1003.4
2016-10-15T03:54:21.132Z,1003.39
2016-10-15T03:55:01.787Z,1003.36
2016-10-15T03:55:42.500Z,1003.38
2016-10-15T03:56:23.180Z,1003.38
2016-10-15T03:57:03.873Z,1003.39
2016-10-15T03:57:44.541Z,1003.37
2016-10-15T03:58:25.244Z,1003.39
2016-10-15T03:59:05.905Z,1003.37
2016-10-15T03:59:46.610Z,1003.36
2016-10-15T04:00:27.252Z,1003.38
2016-10-15T04:01:07.947Z,1003.38
2016-10-15T04:01:48.641Z,1003.37
2016-10-15T04:02:29.285Z,1003.37
2016-10-15T04:03:09.969Z,1003.4
2016-10-15T04:03:50.638Z,1003.42
2016-10-15T04:04:31.348Z,1003.4
2016-10-15T04:05:11.965Z,1003.44
2016-10-15T04:05:52.644Z,1003.43
2016-10-15T04:06:33.314Z,1003.44
2016-10-15T04:07:13.999Z,1003.44
2016-10-15T04:07:54.714Z,1003.43
2016-10-15T04:08:35.364Z,1003.41
2016-10-15T04:09:16.090Z,1003.43
2016-10-15T04:09:56.770Z,1003.41
2016-10-15T04:10:37.444Z,1003.41
2016-10-15T04:11:18.119Z,1003.42
2016-10-15T04:11:58.798Z,1003.43
2016-10-15T04:12:39.451Z,1003.43
2016-10-15T04:13:20.138Z,1003.46
2016-10-15T04:14:00.810Z,1003.46
2016-10-15T04:14:41.484Z,1003.47
2016-10-15T04:15:22.167Z,1003.46
2016-10-15T04:16:02.863Z,1003.5
2016-10-15T04:16:43.604Z,1003.46
2016-10-15T04:17:24.259Z,1003.5
2016-10-15T04:18:04.921Z,1003.52
2016-10-15T04:18:45.574Z,1003.51
2016-10-15T04:19:26.250Z,1003.54
2016-10-15T04:20:06.946Z,1003.55
2016-10-15T04:20:48.244Z,1003.54
2016-10-15T04:21:28.896Z,1003.54
2016-10-15T04:22:09.593Z,1003.58
2016-10-15T04:22:50.250Z,1003.61
2016-10-15T04:23:30.941Z,1003.58
2016-10-15T04:24:11.596Z,1003.57
2016-10-15T04:24:52.279Z,1003.6
2016-10-15T04:25:32.955Z,1003.57
2016-10-15T04:26:13.681Z,1003.59
2016-10-15T04:26:55.203Z,1003.62
2016-10-15T04:27:35.902Z,1003.57
2016-10-15T04:28:16.589Z,1003.56
2016-10-15T04:28:57.315Z,1003.59
2016-10-15T04:29:37.998Z,1003.61
2016-10-15T04:30:18.709Z,1003.61
2016-10-15T04:30:59.394Z,1003.61
2016-10-15T04:31:40.074Z,1003.6
2016-10-15T04:32:20.778Z,1003.62
2016-10-15T04:33:01.441Z,1003.63
2016-10-15T04:33:42.095Z,1003.62
2016-10-15T04:34:22.740Z,1003.62
2016-10-15T04:35:03.463Z,1003.66
2016-10-15T04:35:44.155Z,1003.64
2016-10-15T04:36:24.805Z,1003.66
2016-10-15T04:37:05.517Z,1003.68
2016-10-15T04:37:46.200Z,1003.71
2016-10-15T04:38:26.866Z,1003.72
2016-10-15T04:39:07.565Z,1003.75
2016-10-15T04:39:48.252Z,1003.74
2016-10-15T04:40:28.953Z,1003.79
2016-10-15T04:41:09.624Z,1003.76
2016-10-15T04:41:50.352Z,1003.78
2016-10-15T04:42:31.069Z,1003.79
2016-10-15T04:43:12.577Z,1003.78
2016-10-15T04:43:53.217Z,1003.81
2016-10-15T04:44:33.888Z,1003.77
2016-10-15T04:45:14.553Z,1003.83
2016-10-15T04:45:55.260Z,1003.8
2016-10-15T04:46:35.936Z,1003.83
2016-10-15T04:47:16.581Z,1003.86
2016-10-15T04:47:57.272Z,1003.82
2016-10-15T04:48:37.938Z,1003.82
2016-10-15T04:49:18.638Z,1003.85
2016-10-15T04:49:59.866Z,1003.83
2016-10-15T04:50:40.615Z,1003.86
2016-10-15T04:51:21.300Z,1003.87
2016-10-15T04:52:01.980Z,1003.89
2016-10-15T04:52:42.645Z,1003.87
2016-10-15T04:53:23.349Z,1003.92
2016-10-15T04:54:04.044Z,1003.94
2016-10-15T04:54:44.766Z,1003.94
2016-10-15T04:55:25.448Z,1003.9
2016-10-15T04:56:06.110Z,1003.95
2016-10-15T04:56:46.774Z,1003.92
2016-10-15T04:57:27.494Z,1003.91
2016-10-15T04:58:08.150Z,1003.97
2016-10-15T04:58:48.864Z,1003.93
2016-10-15T04:59:29.542Z,1003.94
2016-10-15T05:00:10.180Z,1003.92
2016-10-15T05:00:50.853Z,1003.94
2016-10-15T05:01:31.527Z,1003.94
2016-10-15T05:02:12.213Z,1003.95
2016-10-15T05:02:52.878Z,1003.95
2016-10-15T05:03:33.590Z,1003.98
2016-10-15T05:04:14.277Z,1003.97
2016-10-15T05:04:54.963Z,1003.98
2016-10-15T05:05:35.685Z,1003.97
2016-10-15T05:06:16.403Z,1003.99
2016-10-15T05:06:57.044Z,1003.97
2016-10-15T05:07:37.739Z,1003.98
2016-10-15T05:08:18.421Z,1003.96
2016-10-15T05:08:59.086Z,1004.03
2016-10-15T05:09:39.762Z,1004.01
2016-10-15T05:10:20.508Z,1004.02
2016-10-15T05:11:01.190Z,1004.06
2016-10-15T05:11:41.882Z,1004.06
2016-10-15T05:12:22.596Z,1004.06
2016-10-15T05:13:03.285Z,1004.08
2016-10-15T05:13:44.919Z,1004.13
2016-10-15T05:14:25.604Z,1004.08
2016-10-15T05:15:06.345Z,1004.09
2016-10-15T05:15:46.999Z,1004.12
2016-10-15T05:16:27.743Z,1004.1
2016-10-15T05:17:08.383Z,1004.09
2016-10-15T05:17:49.043Z,1004.09
2016-10-15T05:18:29.703Z,1004.11
2016-10-15T05:19:10.410Z,1004.07
2016-10-15T05:19:51.100Z,1004.1
2016-10-15T05:20:31.798Z,1004.11
2016-10-15T05:21:12.544Z,1004.09
2016-10-15T05:21:53.226Z,1004.1
2016-10-15T05:22:33.921Z,1004.1
2016-10-15T05:23:14.664Z,1004.14
2016-10-15T05:23:55.365Z,1004.12
2016-10-15T05:24:36.064Z,1004.15
2016-10-15T05:25:16.745Z,1004.21
2016-10-15T05:25:57.415Z,1004.16
2016-10-15T05:26:38.121Z,1004.18
2016-10-15T05:27:18.779Z,1004.21
2016-10-15T05:27:59.423Z,1004.22
2016-10-15T05:28:40.093Z,1004.23
2016-10-15T05:29:20.765Z,1004.22
2016-10-15T05:30:01.484Z,1004.21
2016-10-15T05:30:42.156Z,1004.24
2016-10-15T05:31:22.796Z,1004.27
2016-10-15T05:32:03.442Z,1004.24
2016-10-15T05:32:44.097Z,1004.26
2016-10-15T05:33:24.780Z,1004.29
2016-10-15T05:34:05.450Z,1004.28
2016-10-15T05:34:46.119Z,1004.31
2016-10-15T05:35:26.834Z,1004.29
2016-10-15T05:36:07.527Z,1004.27
2016-10-15T05:36:48.229Z,1004.26
2016-10-15T05:37:28.895Z,1004.27
2016-10-15T05:38:09.587Z,1004.33
2016-10-15T05:38:50.265Z,1004.3
2016-10-15T05:39:30.988Z,1004.32
2016-10-15T05:40:11.678Z,1004.31
2016-10-15T05:40:52.407Z,1004.34
2016-10-15T05:41:33.069Z,1004.32
2016-10-15T05:42:13.784Z,1004.32
2016-10-15T05:42:54.443Z,1004.37
2016-10-15T05:43:35.125Z,1004.36
2016-10-15T05:44:15.803Z,1004.39
2016-10-15T05:44:56.496Z,1004.39
2016-10-15T05:45:37.152Z,1004.38
2016-10-15T05:46:17.852Z,1004.39
2016-10-15T05:46:58.563Z,1004.4
2016-10-15T05:47:39.265Z,1004.4
2016-10-15T05:48:19.896Z,1004.39
2016-10-15T05:49:00.582Z,1004.39
2016-10-15T05:49:41.260Z,1004.39
2016-10-15T05:50:21.951Z,1004.41
2016-10-15T05:51:02.640Z,1004.39
2016-10-15T05:51:43.356Z,1004.38
2016-10-15T05:52:24.068Z,1004.38
2016-10-15T05:53:04.752Z,1004.41
2016-10-15T05:53:45.430Z,1004.41
2016-10-15T05:54:26.063Z,1004.4
2016-10-15T05:55:06.775Z,1004.44
2016-10-15T05:55:47.418Z,1004.44
2016-10-15T05:56:28.132Z,1004.45
2016-10-15T05:57:08.800Z,1004.45
2016-10-15T05:57:50.072Z,1004.46
2016-10-15T05:58:30.338Z,1004.45
2016-10-15T05:59:11.035Z,1004.47
2016-10-15T05:59:51.715Z,1004.45
2016-10-15T06:00:32.373Z,1004.49
2016-10-15T06:01:13.053Z,1004.46
2016-10-15T06:01:53.728Z,1004.54
2016-10-15T06:02:34.358Z,1004.5
2016-10-15T06:03:15.048Z,1004.56
2016-10-15T06:03:55.718Z,1004.56
2016-10-15T06:04:36.455Z,1004.53
2016-10-15T06:05:17.141Z,1004.58
2016-10-15T06:05:57.833Z,1004.58
2016-10-15T06:06:38.480Z,1004.58
2016-10-15T06:07:19.176Z,1004.6
2016-10-15T06:07:59.873Z,1004.57
2016-10-15T06:08:40.595Z,1004.63
2016-10-15T06:09:21.328Z,1004.64
2016-10-15T06:10:02.024Z,1004.63
2016-10-15T06:10:42.716Z,1004.63
2016-10-15T06:11:23.379Z,1004.66
2016-10-15T06:12:04.019Z,1004.64
2016-10-15T06:12:44.730Z,1004.66
2016-10-15T06:13:25.402Z,1004.68
2016-10-15T06:14:06.096Z,1004.67
2016-10-15T06:14:46.754Z,1004.64
2016-10-15T06:15:27.400Z,1004.64
2016-10-15T06:16:08.090Z,1004.66
2016-10-15T06:16:48.767Z,1004.63
2016-10-15T06:17:29.486Z,1004.68
2016-10-15T06:18:10.161Z,1004.68
2016-10-15T06:18:50.827Z,1004.63
2016-10-15T06:19:31.538Z,1004.7
2016-10-15T06:20:12.175Z,1004.67
2016-10-15T06:20:52.864Z,1004.7
2016-10-15T06:21:33.540Z,1004.69
2016-10-15T06:22:14.255Z,1004.75
2016-10-15T06:22:54.923Z,1004.71
2016-10-15T06:23:35.634Z,1004.72
2016-10-15T06:24:16.284Z,1004.78
2016-10-15T06:24:56.965Z,1004.76
2016-10-15T06:25:37.651Z,1004.77
2016-10-15T06:26:18.316Z,1004.76
2016-10-15T06:26:58.992Z,1004.78
2016-10-15T06:27:39.683Z,1004.82
2016-10-15T06:28:20.392Z,1004.82
2016-10-15T06:29:01.031Z,1004.83
2016-10-15T06:29:41.768Z,1004.85
2016-10-15T06:30:22.445Z,1004.85
2016-10-15T06:31:03.130Z,1004.88
2016-10-15T06:31:43.811Z,1004.86
2016-10-15T06:32:24.512Z,1004.86
2016-10-15T06:33:05.217Z,1004.9
2016-10-15T06:33:45.851Z,1004.94
2016-10-15T06:34:26.503Z,1004.91
2016-10-15T06:35:07.221Z,1004.95
2016-10-15T06:35:47.961Z,1004.93
2016-10-15T06:36:28.632Z,1004.94
2016-10-15T06:37:09.324Z,1004.97
2016-10-15T06:37:49.978Z,1004.95
2016-10-15T06:38:30.648Z,1004.94
2016-10-15T06:39:11.308Z,1004.99
2016-10-15T06:39:51.989Z,1005
2016-10-15T06:40:32.658Z,1005
2016-10-15T06:41:13.346Z,1004.98
2016-10-15T06:41:54.047Z,1004.98
2016-10-15T06:42:34.727Z,1005.01
2016-10-15T06:43:15.440Z,1005.02
2016-10-15T06:43:56.124Z,1005.01
2016-10-15T06:44:36.801Z,1005.04
2016-10-15T06:45:17.505Z,1005.03
2016-10-15T06:45:58.164Z,1005.03
2016-10-15T06:46:38.834Z,1005.07
2016-10-15T06:47:19.528Z,1005.08
2016-10-15T06:48:00.193Z,1005.07
2016-10-15T06:48:40.885Z,1005.09
2016-10-15T06:49:21.599Z,1005.09
2016-10-15T06:50:02.238Z,1005.1
2016-10-15T06:50:42.916Z,1005.12
2016-10-15T06:51:23.602Z,1005.12
2016-10-15T06:52:04.326Z,1005.14
2016-10-15T06:52:44.961Z,1005.15
2016-10-15T06:53:25.673Z,1005.13
2016-10-15T06:54:06.350Z,1005.16
2016-10-15T06:54:47.049Z,1005.17
2016-10-15T06:55:27.718Z,1005.16
2016-10-15T06:56:08.421Z,1005.16
2016-10-15T06:56:49.088Z,1005.16
2016-10-15T06:57:29.799Z,1005.19
2016-10-15T06:58:10.541Z,1005.16
2016-10-15T06:58:51.257Z,1005.17
2016-10-15T06:59:31.975Z,1005.18
2016-10-15T07:00:12.657Z,1005.2
2016-10-15T07:00:53.345Z,1005.24
2016-10-15T07:01:34.710Z,1005.23
2016-10-15T07:02:15.457Z,1005.26
2016-10-15T07:02:56.101Z,1005.27
2016-10-15T07:03:36.763Z,1005.28
2016-10-15T07:04:17.434Z,1005.32
2016-10-15T07:04:58.135Z,1005.3
2016-10-15T07:05:38.768Z,1005.32
2016-10-15T07:06:19.448Z,1005.32
2016-10-15T07:07:00.095Z,1005.32
2016-10-15T07:07:40.793Z,1005.32
2016-10-15T07:08:21.471Z,1005.33
2016-10-15T07:09:02.200Z,1005.31
2016-10-15T07:09:42.893Z,1005.32
2016-10-15T07:10:23.554Z,1005.33
2016-10-15T07:11:04.250Z,1005.35
2016-10-15T07:11:44.887Z,1005.35
2016-10-15T07:12:26.105Z,1005.36
2016-10-15T07:13:06.297Z,1005.36
2016-10-15T07:13:46.967Z,1005.36
2016-10-15T07:14:27.677Z,1005.39
2016-10-15T07:15:08.386Z,1005.36
2016-10-15T07:15:49.096Z,1005.41
2016-10-15T07:16:29.776Z,1005.44
2016-10-15T07:17:10.432Z,1005.47
2016-10-15T07:17:51.109Z,1005.48
2016-10-15T07:18:31.786Z,1005.47
2016-10-15T07:19:12.481Z,1005.49
2016-10-15T07:19:53.151Z,1005.5
2016-10-15T07:20:33.824Z,1005.51
2016-10-15T07:21:14.512Z,1005.51
2016-10-15T07:21:55.167Z,1005.56
2016-10-15T07:22:35.829Z,1005.55
2016-10-15T07:23:16.579Z,1005.59
2016-10-15T07:23:57.261Z,1005.58
2016-10-15T07:24:37.965Z,1005.61
2016-10-15T07:25:18.642Z,1005.63
2016-10-15T07:25:59.292Z,1005.64
2016-10-15T07:26:40.031Z,1005.65
2016-10-15T07:27:20.736Z,1005.63
2016-10-15T07:28:01.611Z,1005.67
2016-10-15T07:28:42.116Z,1005.68
2016-10-15T07:29:22.762Z,1005.68
2016-10-15T07:30:03.489Z,1005.67
2016-10-15T07:30:44.141Z,1005.71
2016-10-15T07:31:24.831Z,1005.73
2016-10-15T07:32:05.516Z,1005.76
2016-10-15T07:32:46.212Z,1005.79
2016-10-15T07:33:26.870Z,1005.75
2016-10-15T07:34:07.566Z,1005.78
2016-10-15T07:34:48.265Z,1005.76
2016-10-15T07:35:28.928Z,1005.78
2016-10-15T07:36:09.568Z,1005.77
2016-10-15T07:36:50.299Z,1005.87
2016-10-15T07:37:30.967Z,1005.84
2016-10-15T07:38:11.663Z,1005.89
2016-10-15T07:38:52.368Z,1005.89
2016-10-15T07:39:33.092Z,1005.85
2016-10-15T07:40:13.800Z,1005.9
2016-10-15T07:40:54.498Z,1005.89
2016-10-15T07:41:35.186Z,1005.9
2016-10-15T07:42:15.918Z,1005.93
2016-10-15T07:42:56.548Z,1005.92
2016-10-15T07:43:37.234Z,1005.93
2016-10-15T07:44:17.893Z,1005.9
2016-10-15T07:44:58.565Z,1005.95
2016-10-15T07:45:39.289Z,1005.92
2016-10-15T07:46:20.032Z,1005.89
2016-10-15T07:47:00.670Z,1005.92
2016-10-15T07:47:41.317Z,1005.87
2016-10-15T07:48:22.039Z,1005.89
2016-10-15T07:49:02.690Z,1005.92
2016-10-15T07:49:43.409Z,1005.91
2016-10-15T07:50:24.107Z,1005.94
2016-10-15T07:51:04.775Z,1005.92
2016-10-15T07:51:45.444Z,1006.01
2016-10-15T07:52:26.140Z,1005.97
2016-10-15T07:53:06.791Z,1005.99
2016-10-15T07:53:47.490Z,1005.99
2016-10-15T07:54:28.196Z,1006.04
2016-10-15T07:55:08.887Z,1006.06
2016-10-15T07:55:49.611Z,1006.05
2016-10-15T07:56:30.295Z,1006.07
2016-10-15T07:57:10.981Z,1006.1
2016-10-15T07:57:51.681Z,1006.1
2016-10-15T07:58:32.375Z,1006.09
2016-10-15T07:59:13.080Z,1006.1
2016-10-15T07:59:53.810Z,1006.05
2016-10-15T08:00:34.468Z,1006.1
2016-10-15T08:01:15.167Z,1006.08
2016-10-15T08:01:55.871Z,1006.08
2016-10-15T08:02:36.579Z,1006.07
2016-10-15T08:03:17.297Z,1006.13
2016-10-15T08:03:57.932Z,1006.17
2016-10-15T08:04:38.631Z,1006.13
2016-10-15T08:05:19.301Z,1006.14
2016-10-15T08:06:00.007Z,1006.14
2016-10-15T08:06:40.702Z,1006.16
2016-10-15T08:07:21.390Z,1006.15
2016-10-15T08:08:02.092Z,1006.19
2016-10-15T08:08:42.804Z,1006.19
2016-10-15T08:09:23.487Z,1006.18
2016-10-15T08:10:04.202Z,1006.22
2016-10-15T08:10:44.867Z,1006.24
2016-10-15T08:11:25.542Z,1006.28
2016-10-15T08:12:06.201Z,1006.22
2016-10-15T08:12:46.890Z,1006.19
2016-10-15T08:13:27.588Z,1006.21
2016-10-15T08:14:08.259Z,1006.23